createdAt,value
2018-11-25T00:00:50.525Z,159.50
2018-11-25T00:03:19.451Z,163.43
2018-11-25T00:05:47.204Z,158.60
2018-11-25T00:08:16.126Z,166.50
2018-11-25T00:10:44.449Z,160.43
2018-11-25T00:13:12.224Z,173.17
2018-11-25T00:15:41.140Z,175.70
2018-11-25T00:18:08.942Z,177.70
2018-11-25T00:20:37.858Z,186.47
2018-11-25T00:23:06.194Z,180.20
2018-11-25T00:25:34.769Z,196.90
2018-11-25T00:28:03.108Z,207.50
2018-11-25T00:30:30.954Z,211.77
2018-11-25T00:32:59.782Z,210.40
2018-11-25T00:35:29.061Z,205.70
2018-11-25T00:37:56.755Z,212.60
2018-11-25T00:40:24.523Z,206.33
2018-11-25T00:42:52.864Z,202.40
2018-11-25T00:45:21.785Z,205.97
2018-11-25T00:47:50.407Z,186.10
2018-11-25T00:50:18.729Z,177.90
2018-11-25T00:52:46.482Z,159.30
2018-11-25T00:55:15.389Z,159.23
2018-11-25T00:57:43.154Z,141.53
2018-11-25T01:00:11.481Z,129.80
2018-11-25T01:02:40.396Z,126.73
2018-11-25T01:05:08.297Z,145.13
2018-11-25T01:07:36.473Z,182.20
2018-11-25T01:10:05.393Z,180.80
2018-11-25T01:12:33.735Z,172.27
2018-11-25T01:15:02.698Z,178.20
2018-11-25T01:17:31.406Z,179.37
2018-11-25T01:19:59.562Z,174.27
2018-11-25T01:22:28.472Z,167.40
2018-11-25T01:24:56.798Z,164.37
2018-11-25T01:27:25.126Z,168.90
2018-11-25T01:29:52.877Z,167.60
2018-11-25T01:32:21.193Z,162.60
2018-11-25T01:34:50.109Z,161.40
2018-11-25T01:37:18.451Z,163.70
2018-11-25T01:39:46.189Z,170.53
2018-11-25T01:42:15.112Z,165.83
2018-11-25T01:44:43.439Z,160.67
2018-11-25T01:47:11.785Z,167.63
2018-11-25T01:49:40.125Z,166.63
2018-11-25T01:52:08.458Z,159.57
2018-11-25T01:54:36.210Z,149.90
2018-11-25T01:57:04.530Z,157.07
2018-11-25T01:59:32.862Z,163.67
2018-11-25T02:02:01.772Z,152.63
2018-11-25T02:04:29.518Z,148.37
2018-11-25T02:06:58.430Z,145.00
2018-11-25T02:09:26.185Z,137.43
2018-11-25T02:11:54.508Z,153.57
2018-11-25T02:14:22.833Z,151.87
2018-11-25T02:16:51.790Z,160.03
2018-11-25T02:19:19.538Z,150.97
2018-11-25T02:21:47.881Z,157.03
2018-11-25T02:24:16.786Z,156.40
2018-11-25T02:26:44.541Z,154.03
2018-11-25T02:29:13.451Z,141.53
2018-11-25T02:31:41.195Z,135.87
2018-11-25T02:34:10.105Z,129.03
2018-11-25T02:36:38.440Z,117.67
2018-11-25T02:39:06.190Z,124.10
2018-11-25T02:41:35.099Z,122.30
2018-11-25T02:44:02.849Z,121.07
2018-11-25T02:46:31.760Z,124.73
2018-11-25T02:48:59.512Z,109.13
2018-11-25T02:51:28.416Z,132.77
2018-11-25T02:53:56.177Z,149.70
2018-11-25T02:56:25.084Z,147.50
2018-11-25T02:58:53.407Z,148.27
2018-11-25T03:01:21.738Z,151.43
2018-11-25T03:03:49.488Z,155.27
2018-11-25T03:06:17.845Z,165.47
2018-11-25T03:08:46.175Z,143.97
2018-11-25T03:11:14.543Z,129.73
2018-11-25T03:13:42.825Z,104.80
2018-11-25T03:16:11.740Z,113.13
2018-11-25T03:18:40.102Z,102.50
2018-11-25T03:21:08.431Z,105.43
2018-11-25T03:23:36.752Z,109.67
2018-11-25T03:26:04.496Z,106.63
2018-11-25T03:28:32.832Z,114.40
2018-11-25T03:31:01.742Z,106.33
2018-11-25T03:33:29.489Z,100.43
2018-11-25T03:35:57.817Z,104.10
2018-11-25T03:38:26.160Z,103.47
2018-11-25T03:40:55.070Z,101.93
2018-11-25T03:43:23.410Z,110.33
2018-11-25T03:45:51.158Z,102.87
2018-11-25T03:48:19.487Z,135.97
2018-11-25T03:50:48.403Z,127.93
2018-11-25T03:53:16.153Z,130.23
2018-11-25T03:55:44.476Z,128.47
2018-11-25T03:58:13.382Z,133.83
2018-11-25T04:00:41.709Z,129.07
2018-11-25T04:03:09.454Z,129.57
2018-11-25T04:05:37.782Z,126.53
2018-11-25T04:08:06.688Z,120.00
2018-11-25T04:10:34.488Z,119.60
2018-11-25T04:13:03.352Z,114.53
2018-11-25T04:15:31.686Z,117.33
2018-11-25T04:17:59.418Z,122.87
2018-11-25T04:20:28.339Z,121.77
2018-11-25T04:22:56.090Z,119.10
2018-11-25T04:25:24.996Z,120.07
2018-11-25T04:27:52.746Z,125.37
2018-11-25T04:30:21.659Z,113.93
2018-11-25T04:32:49.406Z,105.23
2018-11-25T04:35:17.732Z,106.97
2018-11-25T04:37:46.056Z,93.47
2018-11-25T04:40:14.383Z,69.60
2018-11-25T04:42:43.282Z,65.67
2018-11-25T04:45:11.091Z,57.40
2018-11-25T04:47:39.352Z,57.70
2018-11-25T04:50:08.255Z,58.80
2018-11-25T04:52:36.587Z,60.77
2018-11-25T04:55:04.330Z,63.27
2018-11-25T04:57:33.226Z,83.27
2018-11-25T05:00:01.560Z,84.80
2018-11-25T05:02:29.880Z,88.87
2018-11-25T05:04:58.211Z,89.43
2018-11-25T05:07:25.951Z,96.23
2018-11-25T05:09:54.276Z,97.17
2018-11-25T05:12:22.604Z,83.67
2018-11-25T05:14:51.510Z,86.70
2018-11-25T05:17:19.238Z,91.13
2018-11-25T05:19:48.143Z,91.27
2018-11-25T05:22:16.491Z,90.40
2018-11-25T05:24:44.233Z,88.57
2018-11-25T05:27:13.137Z,87.93
2018-11-25T05:29:41.459Z,86.27
2018-11-25T05:32:09.785Z,80.53
2018-11-25T05:34:38.108Z,81.20
2018-11-25T05:37:06.430Z,76.20
2018-11-25T05:39:34.755Z,73.50
2018-11-25T05:42:03.079Z,77.83
2018-11-25T05:44:31.402Z,73.70
2018-11-25T05:46:59.727Z,73.77
2018-11-25T05:49:27.472Z,79.13
2018-11-25T05:51:55.794Z,80.37
2018-11-25T05:54:24.131Z,87.77
2018-11-25T05:56:53.369Z,87.80
2018-11-25T05:59:22.470Z,86.57
2018-11-25T06:01:50.206Z,90.90
2018-11-25T06:04:19.122Z,100.57
2018-11-25T06:06:46.870Z,109.90
2018-11-25T06:09:15.774Z,98.97
2018-11-25T06:11:44.102Z,101.30
2018-11-25T06:14:11.857Z,94.53
2018-11-25T06:16:40.755Z,95.07
2018-11-25T06:19:09.079Z,96.17
2018-11-25T06:21:37.622Z,93.67
2018-11-25T06:24:05.391Z,95.97
2018-11-25T06:26:34.560Z,90.80
2018-11-25T06:29:02.305Z,84.93
2018-11-25T06:31:31.206Z,85.03
2018-11-25T06:33:58.956Z,87.17
2018-11-25T06:36:27.273Z,96.23
2018-11-25T06:38:55.591Z,86.10
2018-11-25T06:41:23.922Z,94.87
2018-11-25T06:43:53.387Z,91.30
2018-11-25T06:46:21.491Z,92.63
2018-11-25T06:48:54.765Z,89.80
2018-11-25T06:51:17.564Z,91.67
2018-11-25T06:53:46.185Z,100.80
2018-11-25T06:56:14.225Z,96.23
2018-11-25T06:58:42.550Z,90.03
2018-11-25T07:01:11.467Z,102.53
2018-11-25T07:03:39.216Z,115.60
2018-11-25T07:06:07.541Z,94.57
2018-11-25T07:08:36.442Z,93.57
2018-11-25T07:11:05.099Z,101.93
2018-11-25T07:13:33.422Z,106.93
2018-11-25T07:16:01.172Z,109.43
2018-11-25T07:18:29.502Z,112.17
2018-11-25T07:20:58.714Z,103.27
2018-11-25T07:23:27.313Z,102.10
2018-11-25T07:25:55.080Z,107.63
2018-11-25T07:28:23.982Z,95.23
2018-11-25T07:30:51.728Z,96.90
2018-11-25T07:33:20.049Z,92.27
2018-11-25T07:35:48.376Z,105.37
2018-11-25T07:38:16.737Z,112.90
2018-11-25T07:40:45.053Z,119.80
2018-11-25T07:43:13.381Z,111.63
2018-11-25T07:45:41.715Z,110.40
2018-11-25T07:48:10.043Z,95.50
2018-11-25T07:50:38.951Z,99.83
2018-11-25T07:53:07.469Z,106.43
2018-11-25T07:55:35.610Z,137.37
2018-11-25T07:58:04.529Z,149.13
2018-11-25T08:00:32.283Z,153.23
2018-11-25T08:03:00.620Z,164.60
2018-11-25T08:05:30.121Z,136.53
2018-11-25T08:07:58.449Z,129.53
2018-11-25T08:10:26.786Z,118.50
2018-11-25T08:12:56.426Z,119.40
2018-11-25T08:15:23.458Z,115.63
2018-11-25T08:17:52.369Z,113.70
2018-11-25T08:20:20.117Z,106.50
2018-11-25T08:22:49.033Z,104.43
2018-11-25T08:25:16.790Z,106.23
2018-11-25T08:27:45.740Z,98.23
2018-11-25T08:30:15.054Z,108.70
2018-11-25T08:32:42.627Z,126.70
2018-11-25T08:35:10.976Z,145.93
2018-11-25T08:37:38.721Z,158.40
2018-11-25T08:40:07.052Z,161.80
2018-11-25T08:42:36.338Z,147.87
2018-11-25T08:45:05.244Z,144.20
2018-11-25T08:47:33.002Z,144.13
2018-11-25T08:50:01.331Z,147.50
2018-11-25T08:52:29.682Z,205.17
2018-11-25T08:54:58.607Z,177.67
2018-11-25T08:57:27.107Z,154.60
2018-11-25T08:59:55.440Z,150.80
2018-11-25T09:02:23.189Z,155.50
2018-11-25T09:04:51.517Z,161.70
2018-11-25T09:07:19.914Z,157.80
2018-11-25T09:09:48.271Z,171.00
2018-11-25T09:12:17.191Z,156.50
2018-11-25T09:14:45.541Z,160.50
2018-11-25T09:17:13.298Z,166.50
2018-11-25T09:19:42.230Z,184.33
2018-11-25T09:22:09.983Z,182.33
2018-11-25T09:24:38.942Z,175.80
2018-11-25T09:27:06.702Z,169.67
2018-11-25T09:29:36.127Z,163.93
2018-11-25T09:32:04.843Z,172.07
2018-11-25T09:34:33.478Z,157.87
2018-11-25T09:37:01.005Z,159.97
2018-11-25T09:39:29.462Z,155.37
2018-11-25T09:41:58.684Z,189.60
2018-11-25T09:44:27.073Z,161.17
2018-11-25T09:46:54.832Z,161.57
2018-11-25T09:49:23.749Z,191.17
2018-11-25T09:51:52.091Z,207.33
2018-11-25T09:54:19.846Z,190.23
2018-11-25T09:56:48.770Z,212.37
2018-11-25T09:59:17.105Z,223.90
2018-11-25T10:01:45.442Z,179.57
2018-11-25T10:04:13.802Z,160.43
2018-11-25T10:06:42.464Z,161.90
2018-11-25T10:09:10.237Z,176.17
2018-11-25T10:11:39.274Z,166.77
2018-11-25T10:14:07.608Z,156.23
2018-11-25T10:16:35.794Z,159.00
2018-11-25T10:19:04.133Z,137.13
2018-11-25T10:21:33.043Z,139.27
2018-11-25T10:24:01.800Z,131.23
2018-11-25T10:26:30.140Z,127.57
2018-11-25T10:28:57.906Z,130.00
2018-11-25T10:31:26.451Z,128.43
2018-11-25T10:33:55.363Z,136.13
2018-11-25T10:36:23.692Z,146.17
2018-11-25T10:38:52.023Z,140.50
2018-11-25T10:41:20.407Z,127.80
2018-11-25T10:43:48.202Z,128.60
2018-11-25T10:46:17.160Z,124.40
2018-11-25T10:48:45.505Z,101.10
2018-11-25T10:51:14.301Z,129.70
2018-11-25T10:53:42.692Z,146.23
2018-11-25T10:56:11.068Z,102.40
2018-11-25T10:58:39.655Z,117.87
2018-11-25T11:01:08.422Z,119.00
2018-11-25T11:03:36.826Z,112.43
2018-11-25T11:06:04.698Z,105.30
2018-11-25T11:08:33.803Z,101.20
2018-11-25T11:11:02.251Z,111.17
2018-11-25T11:13:31.041Z,112.23
2018-11-25T11:15:59.823Z,111.13
2018-11-25T11:18:28.241Z,107.93
2018-11-25T11:20:56.679Z,103.63
2018-11-25T11:23:25.392Z,104.87
2018-11-25T11:25:53.711Z,88.43
2018-11-25T11:28:22.068Z,78.20
2018-11-25T11:30:50.404Z,84.50
2018-11-25T11:33:18.964Z,80.07
2018-11-25T11:35:47.292Z,76.67
2018-11-25T11:38:15.629Z,74.20
2018-11-25T11:40:43.950Z,60.67
2018-11-25T11:43:11.693Z,61.60
2018-11-25T11:45:40.029Z,66.10
2018-11-25T11:48:08.433Z,99.93
2018-11-25T11:50:37.341Z,94.37
2018-11-25T11:53:05.799Z,60.37
2018-11-25T11:55:34.170Z,61.13
2018-11-25T11:58:02.776Z,57.53
2018-11-25T12:00:30.293Z,111.27
2018-11-25T12:02:59.230Z,62.47
2018-11-25T12:05:28.757Z,66.43
2018-11-25T12:07:57.205Z,74.10
2018-11-25T12:10:26.438Z,54.17
2018-11-25T12:12:54.664Z,59.17
2018-11-25T12:15:29.967Z,73.23
2018-11-25T12:17:52.968Z,58.27
2018-11-25T12:20:21.670Z,62.20
2018-11-25T12:22:50.706Z,58.97
2018-11-25T12:25:18.527Z,54.10
2018-11-25T12:27:47.430Z,47.43
2018-11-25T12:30:16.034Z,50.90
2018-11-25T12:32:44.366Z,55.07
2018-11-25T12:35:12.134Z,58.23
2018-11-25T12:37:41.091Z,69.43
2018-11-25T12:40:08.901Z,67.40
2018-11-25T12:42:37.953Z,73.70
2018-11-25T12:45:06.699Z,82.47
2018-11-25T12:47:35.182Z,84.07
2018-11-25T12:50:03.531Z,83.47
2018-11-25T12:52:31.932Z,80.90
2018-11-25T12:55:00.341Z,78.63
2018-11-25T12:57:28.383Z,70.77
2018-11-25T12:59:56.448Z,67.53
2018-11-25T13:02:25.559Z,60.13
2018-11-25T13:04:53.914Z,68.27
2018-11-25T13:07:22.238Z,79.03
2018-11-25T13:09:50.597Z,79.87
2018-11-25T13:12:18.361Z,81.17
2018-11-25T13:14:47.270Z,87.43
2018-11-25T13:17:16.387Z,83.67
2018-11-25T13:19:44.950Z,64.67
2018-11-25T13:22:13.497Z,70.53
2018-11-25T13:24:41.737Z,63.63
2018-11-25T13:27:10.176Z,64.60
2018-11-25T13:29:38.531Z,82.23
2018-11-25T13:32:06.978Z,180.53
2018-11-25T13:34:35.319Z,61.03
2018-11-25T13:40:02.389Z,52.33
2018-11-25T13:42:30.810Z,53.40
2018-11-25T13:44:58.659Z,41.77
2018-11-25T13:47:26.993Z,40.23
2018-11-25T13:49:55.316Z,47.53
2018-11-25T13:52:23.954Z,48.13
2018-11-25T13:54:52.340Z,37.80
2018-11-25T13:57:20.774Z,42.17
2018-11-25T13:59:48.552Z,49.47
2018-11-25T14:02:17.574Z,47.07
2018-11-25T14:04:46.452Z,48.77
2018-11-25T14:07:14.804Z,53.73
2018-11-25T14:09:43.243Z,45.17
2018-11-25T14:12:10.990Z,40.70
2018-11-25T14:14:40.347Z,40.53
2018-11-25T14:17:08.667Z,41.47
2018-11-25T14:19:37.020Z,52.40
2018-11-25T14:22:05.577Z,54.70
2018-11-25T14:24:33.942Z,51.53
2018-11-25T14:27:02.333Z,49.40
2018-11-25T14:29:30.671Z,56.10
2018-11-25T14:31:59.228Z,49.47
2018-11-25T14:34:27.603Z,96.57
2018-11-25T14:36:55.390Z,49.03
2018-11-25T14:39:23.727Z,42.73
2018-11-25T14:41:52.625Z,45.57
2018-11-25T14:44:20.510Z,113.17
2018-11-25T14:46:50.357Z,78.90
2018-11-25T14:49:18.100Z,58.20
2018-11-25T14:51:47.010Z,56.97
2018-11-25T14:54:15.467Z,60.73
2018-11-25T14:56:44.279Z,62.23
2018-11-25T14:59:13.000Z,71.73
2018-11-25T15:01:41.332Z,72.57
2018-11-25T15:04:09.982Z,72.67
2018-11-25T15:06:38.443Z,81.13
2018-11-25T15:09:06.834Z,87.07
2018-11-25T15:11:35.524Z,81.90
2018-11-25T15:14:03.851Z,84.93
2018-11-25T15:16:32.178Z,95.53
2018-11-25T15:19:00.655Z,95.10
2018-11-25T15:21:29.486Z,102.93
2018-11-25T15:23:57.264Z,96.40
2018-11-25T15:26:26.292Z,124.23
2018-11-25T15:28:54.718Z,145.67
2018-11-25T15:31:23.117Z,103.60
2018-11-25T15:33:51.777Z,116.80
2018-11-25T15:36:20.113Z,129.27
2018-11-25T15:38:47.882Z,126.00
2018-11-25T15:41:17.494Z,129.80
2018-11-25T15:43:45.881Z,124.43
2018-11-25T15:46:15.218Z,102.67
2018-11-25T15:48:43.583Z,102.43
2018-11-25T15:51:11.110Z,81.37
2018-11-25T15:53:40.064Z,71.90
2018-11-25T15:56:08.402Z,65.60
2018-11-25T15:58:36.757Z,70.47
2018-11-25T16:01:05.383Z,68.80
2018-11-25T16:03:33.754Z,72.20
2018-11-25T16:06:02.069Z,101.50
2018-11-25T16:08:37.689Z,62.27
2018-11-25T16:10:58.797Z,53.37
2018-11-25T16:13:26.547Z,54.27
2018-11-25T16:15:55.829Z,56.73
2018-11-25T16:18:24.250Z,56.53
2018-11-25T16:20:52.552Z,68.87
2018-11-25T16:23:20.890Z,61.43
2018-11-25T16:25:49.367Z,71.13
2018-11-25T16:28:17.925Z,59.50
2018-11-25T16:30:46.260Z,62.53
2018-11-25T16:33:14.616Z,119.40
2018-11-25T16:35:42.959Z,64.47
2018-11-25T16:38:10.738Z,64.50
2018-11-25T16:40:39.984Z,69.63
2018-11-25T16:43:08.593Z,63.70
2018-11-25T16:45:36.970Z,69.67
2018-11-25T16:48:05.290Z,67.83
2018-11-25T16:50:33.918Z,58.70
2018-11-25T16:53:01.666Z,58.30
2018-11-25T16:55:30.015Z,67.30
2018-11-25T16:57:59.048Z,64.87
2018-11-25T17:00:27.484Z,69.50
2018-11-25T17:02:55.905Z,70.47
2018-11-25T17:05:23.700Z,76.37
2018-11-25T17:07:52.049Z,80.80
2018-11-25T17:10:21.007Z,74.60
2018-11-25T17:12:48.779Z,169.27
2018-11-25T17:15:17.706Z,79.67
2018-11-25T17:17:46.403Z,61.93
2018-11-25T17:20:14.150Z,65.33
2018-11-25T17:22:43.057Z,64.97
2018-11-25T17:25:11.943Z,59.67
2018-11-25T17:27:39.764Z,57.37
2018-11-25T17:30:08.059Z,53.03
2018-11-25T17:32:36.411Z,51.90
2018-11-25T17:35:04.772Z,44.23
2018-11-25T17:37:33.133Z,46.33
2018-11-25T17:40:01.568Z,39.47
2018-11-25T17:42:29.914Z,53.07
2018-11-25T17:44:59.256Z,58.10
2018-11-25T17:47:27.911Z,82.60
2018-11-25T17:49:56.612Z,57.07
2018-11-25T17:52:24.953Z,57.80
2018-11-25T17:54:52.713Z,55.63
2018-11-25T17:57:21.631Z,51.93
2018-11-25T17:59:50.012Z,48.20
2018-11-25T18:02:18.296Z,47.57
2018-11-25T18:04:46.041Z,57.47
2018-11-25T18:07:14.437Z,54.57
2018-11-25T18:09:42.770Z,55.77
2018-11-25T18:12:11.727Z,52.20
2018-11-25T18:14:40.260Z,39.87
2018-11-25T18:17:08.210Z,40.97
2018-11-25T18:19:37.158Z,59.33
2018-11-25T18:22:05.738Z,105.23
2018-11-25T18:24:34.005Z,44.07
2018-11-25T18:27:02.471Z,42.43
2018-11-25T18:29:31.057Z,35.13
2018-11-25T18:31:58.856Z,45.60
2018-11-25T18:34:27.812Z,56.63
2018-11-25T18:36:56.268Z,56.40
2018-11-25T18:39:24.644Z,52.47
2018-11-25T18:41:53.282Z,53.27
2018-11-25T18:44:21.326Z,56.00
2018-11-25T18:46:49.656Z,54.23
2018-11-25T18:49:18.051Z,61.40
2018-11-25T18:51:46.992Z,58.33
2018-11-25T18:54:15.326Z,77.83
2018-11-25T18:56:43.873Z,72.77
2018-11-25T18:59:12.652Z,44.97
2018-11-25T19:01:41.272Z,43.87
2018-11-25T19:04:10.549Z,47.67
2018-11-25T19:06:39.060Z,40.47
2018-11-25T19:09:07.484Z,30.27
2018-11-25T19:11:37.353Z,16.57
2018-11-25T19:14:05.095Z,17.37
2018-11-25T19:16:34.176Z,14.43
2018-11-25T19:19:02.468Z,13.13
2018-11-25T19:21:30.245Z,19.03
2018-11-25T19:23:59.120Z,23.50
2018-11-25T19:26:26.920Z,17.87
2018-11-25T19:28:55.788Z,15.60
2018-11-25T19:31:24.133Z,19.17
2018-11-25T19:33:52.498Z,18.23
2018-11-25T19:36:20.827Z,20.13
2018-11-25T19:38:48.577Z,19.17
2018-11-25T19:41:17.498Z,20.30
2018-11-25T19:43:46.759Z,21.07
2018-11-25T19:46:13.620Z,80.17
2018-11-25T19:48:41.965Z,57.43
2018-11-25T19:51:17.270Z,26.27
2018-11-25T19:53:38.766Z,25.27
2018-11-25T19:56:07.098Z,23.00
2018-11-25T19:58:36.010Z,27.37
2018-11-25T20:01:04.348Z,28.90
2018-11-25T20:03:32.737Z,28.83
2018-11-25T20:06:01.061Z,42.73
2018-11-25T20:08:29.390Z,35.50
2018-11-25T20:10:58.040Z,35.17
2018-11-25T20:13:26.103Z,33.93
2018-11-25T20:15:55.090Z,26.23
2018-11-25T20:18:23.388Z,24.67
2018-11-25T20:20:51.752Z,25.43
2018-11-25T20:23:20.335Z,24.50
2018-11-25T20:25:48.694Z,25.47
2018-11-25T20:28:17.626Z,26.00
2018-11-25T20:30:45.954Z,22.37
2018-11-25T20:33:15.550Z,24.50
2018-11-25T20:35:44.525Z,25.67
2018-11-25T20:38:12.204Z,25.40
2018-11-25T20:40:40.539Z,22.03
2018-11-25T20:43:08.292Z,22.70
2018-11-25T20:45:39.014Z,24.23
2018-11-25T20:48:05.861Z,27.43
2018-11-25T20:50:33.610Z,36.73
2018-11-25T20:53:07.416Z,29.73
2018-11-25T20:55:35.144Z,28.70
2018-11-25T20:58:03.199Z,41.30
2018-11-25T21:00:32.510Z,47.17
2018-11-25T21:03:00.252Z,30.37
2018-11-25T21:05:29.181Z,24.80
2018-11-25T21:07:57.587Z,26.57
2018-11-25T21:10:26.168Z,28.93
2018-11-25T21:12:53.706Z,28.30
2018-11-25T21:15:22.765Z,26.07
2018-11-25T21:17:51.861Z,25.20
2018-11-25T21:20:20.240Z,20.97
2018-11-25T21:22:49.268Z,22.20
2018-11-25T21:25:17.641Z,22.03
2018-11-25T21:27:46.496Z,22.83
2018-11-25T21:30:14.830Z,21.60
2018-11-25T21:32:43.993Z,21.27
2018-11-25T21:35:14.455Z,21.57
2018-11-25T21:37:42.976Z,24.60
2018-11-25T21:40:11.292Z,24.70
2018-11-25T21:42:39.673Z,23.03
2018-11-25T21:45:07.413Z,77.17
2018-11-25T21:47:36.324Z,45.87
2018-11-25T21:50:04.858Z,25.47
2018-11-25T21:52:32.587Z,25.70
2018-11-25T21:55:00.962Z,23.73
2018-11-25T21:57:29.875Z,24.20
2018-11-25T21:59:58.314Z,26.13
2018-11-25T22:02:26.053Z,21.37
2018-11-25T22:04:54.980Z,21.80
2018-11-25T22:07:23.324Z,23.40
2018-11-25T22:09:51.728Z,20.57
2018-11-25T22:12:20.531Z,20.53
2018-11-25T22:14:48.864Z,22.53
2018-11-25T22:17:17.355Z,23.83
2018-11-25T22:19:45.157Z,22.37
2018-11-25T22:22:14.056Z,21.77
2018-11-25T22:24:41.852Z,20.83
2018-11-25T22:27:10.776Z,19.40
2018-11-25T22:29:38.517Z,22.13
2018-11-25T22:32:07.422Z,18.33
2018-11-25T22:34:35.972Z,19.53
2018-11-25T22:37:04.311Z,17.57
2018-11-25T22:39:31.911Z,19.17
2018-11-25T22:42:00.765Z,19.43
2018-11-25T22:44:28.513Z,18.23
2018-11-25T22:46:56.817Z,19.13
2018-11-25T22:49:25.729Z,18.53
2018-11-25T22:51:54.447Z,17.13
2018-11-25T22:54:22.908Z,18.33
2018-11-25T22:56:50.718Z,17.90
2018-11-25T22:59:19.801Z,21.43
2018-11-25T23:01:47.549Z,68.13
2018-11-25T23:04:17.809Z,20.43
2018-11-25T23:06:50.302Z,19.80
2018-11-25T23:09:19.279Z,17.87
2018-11-25T23:11:47.561Z,16.80
2018-11-25T23:14:15.312Z,17.83
2018-11-25T23:16:44.239Z,16.80
2018-11-25T23:19:12.274Z,18.00
2018-11-25T23:21:41.263Z,17.50
2018-11-25T23:24:10.163Z,17.33
2018-11-25T23:26:38.489Z,20.37
2018-11-25T23:29:06.812Z,30.00
2018-11-25T23:31:34.584Z,22.30
2018-11-25T23:34:03.475Z,15.77
2018-11-25T23:36:32.026Z,16.90
2018-11-25T23:39:00.114Z,16.37
2018-11-25T23:41:28.443Z,16.83
2018-11-25T23:43:56.766Z,14.33
2018-11-25T23:46:25.099Z,15.63
2018-11-25T23:48:52.867Z,14.03
2018-11-25T23:51:21.268Z,14.70
2018-11-25T23:53:49.607Z,14.97
2018-11-25T23:56:18.290Z,13.30
2018-11-25T23:58:47.038Z,14.50
